Time;durP1;ratioP1;P1;durP2;ratioP2;P2;SDS_P1;SDS_P2;PMS_P1;PMS_P2;Temp;Humidity;BMP_temperature;BMP_pressure;BME280_temperature;BME280_humidity;BME280_pressure;Samples;Min_cycle;Max_cycle;Signal;HPM_P1;HPM_P2
2022/01/19 00:00:30;;;;;;;22.27;7.97;;;2.50;99.90;;;;;;5082680;28;20341;-73
2022/01/19 00:02:57;;;;;;;24.67;9.17;;;2.50;99.90;;;;;;5069928;28;20641;-74
2022/01/19 00:05:24;;;;;;;19.10;8.87;;;2.40;99.90;;;;;;5080584;28;20716;-74
2022/01/19 00:07:51;;;;;;;20.20;8.57;;;2.40;99.90;;;;;;5092056;28;20197;-74
2022/01/19 00:10:20;;;;;;;25.23;8.67;;;2.50;99.90;;;;;;5089080;28;20198;-74
2022/01/19 00:12:47;;;;;;;19.43;8.40;;;2.40;99.90;;;;;;5071999;28;20875;-74
2022/01/19 00:15:15;;;;;;;20.93;9.47;;;2.30;99.90;;;;;;5089264;28;20208;-74
2022/01/19 00:17:43;;;;;;;17.00;8.47;;;2.40;99.90;;;;;;5071339;28;20259;-73
2022/01/19 00:20:11;;;;;;;19.40;9.20;;;2.40;99.90;;;;;;5078744;28;20228;-74
2022/01/19 00:22:38;;;;;;;20.70;8.20;;;2.40;99.90;;;;;;5090225;28;20258;-73
2022/01/19 00:25:07;;;;;;;15.07;8.30;;;2.40;99.90;;;;;;5090288;28;20402;-73
2022/01/19 00:27:35;;;;;;;19.27;8.83;;;2.20;99.90;;;;;;5089229;28;20201;-73
2022/01/19 00:30:02;;;;;;;20.73;8.90;;;2.30;99.90;;;;;;5090656;28;20543;-73
2022/01/19 00:32:29;;;;;;;22.20;8.73;;;2.10;99.90;;;;;;5088982;28;20286;-73
2022/01/19 00:34:58;;;;;;;20.80;9.07;;;2.20;99.90;;;;;;5089997;28;20208;-73
2022/01/19 00:37:25;;;;;;;20.03;8.50;;;2.20;99.90;;;;;;5081997;28;20256;-73
2022/01/19 00:39:52;;;;;;;18.57;8.47;;;2.20;99.90;;;;;;5070971;28;20191;-73
2022/01/19 00:42:19;;;;;;;21.43;9.03;;;2.20;99.90;;;;;;5082383;28;20599;-73
2022/01/19 00:44:47;;;;;;;18.47;8.23;;;2.20;99.90;;;;;;5086920;28;20234;-73
2022/01/19 00:47:14;;;;;;;16.03;7.83;;;2.20;99.90;;;;;;5078864;28;20205;-73
2022/01/19 00:49:42;;;;;;;21.43;8.60;;;2.10;99.90;;;;;;5090572;28;20624;-73
2022/01/19 00:52:11;;;;;;;26.63;11.20;;;2.10;99.90;;;;;;5091180;28;20220;-73
2022/01/19 00:54:38;;;;;;;24.17;9.33;;;2.20;99.90;;;;;;5075837;28;20256;-73
2022/01/19 00:57:06;;;;;;;20.77;9.40;;;2.20;99.90;;;;;;5087203;28;20236;-73
2022/01/19 00:59:33;;;;;;;19.70;8.40;;;2.30;99.90;;;;;;5085991;28;20522;-73
2022/01/19 01:02:01;;;;;;;18.57;8.23;;;2.10;99.90;;;;;;5078747;28;20245;-73
2022/01/19 01:04:29;;;;;;;21.27;8.63;;;2.10;99.90;;;;;;5079435;28;20251;-73
2022/01/19 01:06:56;;;;;;;20.23;10.03;;;2.10;99.90;;;;;;5089925;28;20614;-73
2022/01/19 01:09:24;;;;;;;19.40;8.83;;;2.10;99.90;;;;;;5090186;28;20851;-73
2022/01/19 01:12:00;;;;;;;20.80;8.13;;;2.00;99.90;;;;;;5083543;28;20827;-73
2022/01/19 01:18:17;;;;;;;18.97;8.17;;;1.80;99.90;;;;;;5074308;28;20548;-73
2022/01/19 01:20:04;;;;;;;20.37;8.60;;;1.80;99.90;;;;;;5076257;28;20199;-73
2022/01/19 01:22:31;;;;;;;19.03;9.77;;;1.90;99.90;;;;;;5094543;28;20640;-73
2022/01/19 01:24:59;;;;;;;22.63;8.87;;;1.90;99.90;;;;;;5087953;28;20198;-73
2022/01/19 01:27:26;;;;;;;23.80;8.67;;;2.10;99.90;;;;;;5091036;28;20205;-73
2022/01/19 01:29:54;;;;;;;20.77;9.07;;;2.00;99.90;;;;;;5081492;28;20201;-69
2022/01/19 01:32:21;;;;;;;18.10;8.63;;;1.90;99.90;;;;;;5092528;28;20947;-73
2022/01/19 01:34:48;;;;;;;19.13;8.77;;;1.90;99.90;;;;;;5094353;28;20205;-70
2022/01/19 01:37:14;;;;;;;21.67;8.60;;;1.80;99.90;;;;;;5095488;28;20205;-70
2022/01/19 01:39:41;;;;;;;18.30;8.00;;;1.80;99.90;;;;;;5095513;28;20647;-70
2022/01/19 01:42:15;;;;;;;20.60;8.30;;;1.70;99.90;;;;;;5095140;28;20255;-70
2022/01/19 01:44:44;;;;;;;19.17;8.17;;;1.70;99.90;;;;;;5094671;28;20564;-70
2022/01/19 01:47:13;;;;;;;21.87;8.60;;;1.80;99.90;;;;;;5093759;28;20225;-70
2022/01/19 01:53:16;;;;;;;19.10;9.20;;;1.80;99.90;;;;;;5090067;28;20209;-70
2022/01/19 01:55:18;;;;;;;17.87;7.53;;;1.50;99.90;;;;;;5089744;28;20246;-70
2022/01/19 01:57:47;;;;;;;17.17;7.20;;;1.60;99.90;;;;;;5093302;28;20198;-70
2022/01/19 02:00:18;;;;;;;23.40;9.47;;;1.50;99.90;;;;;;5094479;28;20236;-70
2022/01/19 02:02:47;;;;;;;16.97;7.43;;;1.40;99.90;;;;;;5074873;28;20585;-70
2022/01/19 02:05:14;;;;;;;19.40;8.27;;;1.30;99.90;;;;;;5081051;28;20210;-70
2022/01/19 02:07:47;;;;;;;20.63;8.73;;;1.30;99.90;;;;;;5083851;28;20194;-70
2022/01/19 02:10:30;;;;;;;17.03;6.93;;;1.40;99.90;;;;;;5074777;28;20194;-70
2022/01/19 02:15:51;;;;;;;17.23;8.23;;;1.50;99.90;;;;;;5088079;28;20212;-70
2022/01/19 02:23:51;;;;;;;19.27;7.80;;;1.30;99.90;;;;;;5081027;28;20243;-69
2022/01/19 02:26:19;;;;;;;14.93;7.07;;;1.20;99.90;;;;;;5089004;28;20209;-70
2022/01/19 02:29:08;;;;;;;17.67;7.30;;;1.00;99.90;;;;;;5092774;28;20669;-69
2022/01/19 02:40:14;;;;;;;19.33;8.37;;;1.00;99.90;;;;;;5065240;28;20209;-69
2022/01/19 02:42:55;;;;;;;20.47;7.90;;;0.80;99.90;;;;;;5065895;28;20211;-70
2022/01/19 02:50:52;;;;;;;19.13;7.90;;;0.70;99.90;;;;;;5092554;28;20209;-69
2022/01/19 02:53:20;;;;;;;18.87;8.47;;;0.60;99.90;;;;;;5076831;28;20698;-69
2022/01/19 02:55:47;;;;;;;18.37;7.87;;;0.80;99.90;;;;;;5086052;28;20229;-69
2022/01/19 02:58:18;;;;;;;20.73;8.03;;;0.80;99.90;;;;;;5077610;28;20187;-69
2022/01/19 03:08:42;;;;;;;24.00;9.30;;;0.90;99.90;;;;;;5089667;28;20216;-69
2022/01/19 03:09:05;;;;;;;20.10;7.87;;;0.90;99.90;;;;;;5091996;28;20222;-69
2022/01/19 03:11:33;;;;;;;22.33;8.53;;;0.70;99.90;;;;;;5083122;28;20259;-69
2022/01/19 03:14:01;;;;;;;18.60;7.53;;;0.70;99.90;;;;;;5073586;28;20222;-69
2022/01/19 03:16:28;;;;;;;17.83;8.27;;;0.60;99.90;;;;;;5092069;28;20197;-69
2022/01/19 03:18:55;;;;;;;22.97;8.40;;;0.60;99.90;;;;;;5091989;28;20197;-69
2022/01/19 03:21:22;;;;;;;18.90;8.43;;;0.70;99.90;;;;;;5092002;28;20205;-69
2022/01/19 03:23:49;;;;;;;17.23;8.20;;;0.70;99.90;;;;;;5085411;28;20187;-69
2022/01/19 03:26:17;;;;;;;19.13;8.33;;;0.70;99.90;;;;;;5078962;28;20634;-69
2022/01/19 03:28:44;;;;;;;25.80;10.20;;;0.70;99.90;;;;;;5079346;28;20286;-69
2022/01/19 03:31:11;;;;;;;24.07;10.33;;;0.70;99.90;;;;;;5083045;28;20198;-69
2022/01/19 03:33:38;;;;;;;24.50;8.87;;;0.50;99.90;;;;;;5085558;28;20689;-69
2022/01/19 03:36:05;;;;;;;21.07;8.90;;;0.60;99.90;;;;;;5074483;28;20202;-67
2022/01/19 03:38:32;;;;;;;21.37;9.43;;;0.70;99.90;;;;;;5092608;28;20581;-69
2022/01/19 03:40:59;;;;;;;20.73;8.27;;;0.70;99.90;;;;;;5092449;28;20235;-68
2022/01/19 03:43:29;;;;;;;24.37;9.50;;;0.60;99.90;;;;;;5091273;28;20205;-66
2022/01/19 03:45:59;;;;;;;18.57;8.57;;;0.40;99.90;;;;;;5092275;28;20206;-66
2022/01/19 03:48:37;;;;;;;19.60;8.93;;;0.50;99.90;;;;;;5076031;28;20201;-66
2022/01/19 03:51:04;;;;;;;21.23;9.63;;;0.50;99.90;;;;;;5072407;28;20205;-66
2022/01/19 03:53:32;;;;;;;19.80;8.50;;;0.60;99.90;;;;;;5088118;28;20217;-66
2022/01/19 03:55:59;;;;;;;27.23;8.97;;;0.50;99.90;;;;;;5091240;28;20212;-67
2022/01/19 03:58:26;;;;;;;19.43;8.47;;;0.60;99.90;;;;;;5092026;28;20885;-67
2022/01/19 04:00:57;;;;;;;15.07;7.17;;;0.60;99.90;;;;;;5072261;28;20216;-66
2022/01/19 04:03:37;;;;;;;18.83;9.17;;;0.60;99.90;;;;;;5089275;28;20855;-66
2022/01/19 04:06:15;;;;;;;18.57;8.80;;;0.40;99.90;;;;;;5092301;28;20233;-67
2022/01/19 04:08:42;;;;;;;25.40;9.00;;;0.50;99.90;;;;;;5071433;28;20648;-66
2022/01/19 04:11:09;;;;;;;16.97;8.03;;;0.40;99.90;;;;;;5078197;28;20266;-67
2022/01/19 04:13:56;;;;;;;19.53;8.47;;;0.50;99.90;;;;;;5091486;28;20286;-66
2022/01/19 04:16:25;;;;;;;19.17;7.77;;;0.50;99.90;;;;;;5090574;28;20574;-67
2022/01/19 04:19:01;;;;;;;18.90;7.87;;;0.40;99.90;;;;;;5084489;28;20310;-67
2022/01/19 04:21:28;;;;;;;18.47;9.20;;;0.30;99.90;;;;;;5092055;28;20296;-66
2022/01/19 04:23:55;;;;;;;22.57;9.47;;;0.10;99.90;;;;;;5091822;28;20205;-66
2022/01/19 04:26:22;;;;;;;19.47;8.27;;;0.20;99.90;;;;;;5092320;28;20197;-67
2022/01/19 04:28:49;;;;;;;21.33;8.03;;;0.20;99.90;;;;;;5092153;28;20243;-66
2022/01/19 04:31:16;;;;;;;20.23;8.37;;;0.30;99.90;;;;;;5091937;28;20209;-66
2022/01/19 04:33:45;;;;;;;21.10;9.00;;;0.50;99.90;;;;;;5091694;28;20240;-66
2022/01/19 04:36:27;;;;;;;19.63;7.10;;;0.50;99.90;;;;;;5091978;28;20248;-67
2022/01/19 04:44:39;;;;;;;19.70;8.40;;;0.20;99.90;;;;;;5090822;28;20238;-68
2022/01/19 04:47:52;;;;;;;17.10;7.53;;;0.10;99.90;;;;;;5090221;28;20270;-74
2022/01/19 05:04:29;;;;;;;18.00;8.40;;;0.10;99.90;;;;;;5052584;28;20207;-73
2022/01/19 05:07:09;;;;;;;22.47;8.23;;;0.10;99.90;;;;;;5035762;28;20210;-73
2022/01/19 05:09:57;;;;;;;21.53;8.33;;;0.20;99.90;;;;;;5070730;28;20201;-73
2022/01/19 05:15:10;;;;;;;23.57;8.93;;;0.20;99.90;;;;;;5094781;28;20217;-73
2022/01/19 05:17:37;;;;;;;23.13;8.97;;;0.10;99.90;;;;;;5103831;28;20297;-73
2022/01/19 05:20:04;;;;;;;18.13;7.37;;;0.10;99.90;;;;;;5095091;28;20865;-73
2022/01/19 05:22:33;;;;;;;19.27;7.83;;;0.00;99.90;;;;;;5095304;28;20236;-73
2022/01/19 05:25:01;;;;;;;19.00;7.73;;;0.10;99.90;;;;;;5094941;28;20241;-73
2022/01/19 05:27:28;;;;;;;18.93;7.53;;;0.00;99.90;;;;;;5094399;28;20227;-73
2022/01/19 05:29:55;;;;;;;17.40;8.40;;;0.00;99.90;;;;;;5093639;28;20225;-73
2022/01/19 05:32:23;;;;;;;17.53;7.53;;;0.00;99.90;;;;;;5094033;28;20202;-73
2022/01/19 05:34:51;;;;;;;18.23;7.50;;;0.00;99.90;;;;;;5093690;28;20222;-73
2022/01/19 05:37:18;;;;;;;18.70;7.60;;;0.00;99.90;;;;;;5095048;28;20251;-73
2022/01/19 05:39:46;;;;;;;21.13;8.33;;;0.00;99.90;;;;;;5095056;28;20205;-74
2022/01/19 05:42:15;;;;;;;19.63;8.57;;;0.20;99.90;;;;;;5094944;28;20197;-74
2022/01/19 05:44:43;;;;;;;19.67;8.23;;;0.30;99.90;;;;;;5093648;28;20190;-73
2022/01/19 05:47:11;;;;;;;15.63;7.03;;;0.30;99.90;;;;;;5095077;28;20206;-74
2022/01/19 05:49:38;;;;;;;21.67;8.63;;;0.20;99.90;;;;;;5094191;28;20217;-73
2022/01/19 05:52:06;;;;;;;20.00;7.83;;;0.20;99.90;;;;;;5094818;28;20205;-74
2022/01/19 05:54:34;;;;;;;21.30;8.13;;;0.30;99.90;;;;;;5093749;28;20270;-74
2022/01/19 05:57:03;;;;;;;19.30;7.97;;;0.50;99.90;;;;;;5094438;28;20209;-73
2022/01/19 05:59:30;;;;;;;18.37;8.10;;;0.50;99.90;;;;;;5094460;28;20198;-73
2022/01/19 06:01:58;;;;;;;16.40;8.67;;;0.70;99.90;;;;;;5094093;28;20205;-74
2022/01/19 06:04:26;;;;;;;21.57;8.63;;;0.80;99.90;;;;;;5094064;28;20642;-73
2022/01/19 06:06:55;;;;;;;24.77;9.03;;;0.90;99.90;;;;;;5094015;28;20234;-74
2022/01/19 06:09:34;;;;;;;18.23;8.10;;;0.90;99.90;;;;;;5094398;28;20198;-74
2022/01/19 06:12:05;;;;;;;18.67;9.17;;;0.90;99.90;;;;;;5092956;28;20288;-74
2022/01/19 06:14:33;;;;;;;21.47;9.90;;;1.30;99.90;;;;;;5093068;28;20221;-67
2022/01/19 06:17:00;;;;;;;19.63;9.97;;;1.80;99.90;;;;;;5094342;28;20213;-69
2022/01/19 06:19:28;;;;;;;19.47;10.00;;;1.90;99.90;;;;;;5094024;28;20202;-67
2022/01/19 06:21:55;;;;;;;22.87;10.47;;;1.90;99.90;;;;;;5093877;28;20605;-73
2022/01/19 06:24:23;;;;;;;20.03;9.60;;;2.10;99.90;;;;;;5092697;28;20237;-74
2022/01/19 06:26:50;;;;;;;20.87;10.10;;;2.30;99.90;;;;;;5093767;28;20699;-74
2022/01/19 06:29:18;;;;;;;20.87;10.40;;;2.50;99.90;;;;;;5092826;28;20660;-74
2022/01/19 06:31:45;;;;;;;20.20;9.40;;;2.50;99.90;;;;;;5092971;28;20205;-74
2022/01/19 06:34:13;;;;;;;17.20;9.50;;;2.60;99.90;;;;;;5092830;28;20780;-74
2022/01/19 06:36:40;;;;;;;17.20;10.00;;;2.60;99.90;;;;;;5093626;28;20210;-74
2022/01/19 06:39:07;;;;;;;17.13;9.27;;;2.70;99.90;;;;;;5093653;28;20237;-74
2022/01/19 06:41:34;;;;;;;19.07;8.87;;;2.60;99.90;;;;;;5093374;28;20206;-74
2022/01/19 06:44:01;;;;;;;19.07;9.83;;;2.60;99.90;;;;;;5093457;28;20258;-74
2022/01/19 06:46:30;;;;;;;18.63;9.37;;;2.70;99.90;;;;;;5092766;28;20258;-74
2022/01/19 06:48:57;;;;;;;16.77;8.90;;;2.60;99.90;;;;;;5093193;28;20285;-74
2022/01/19 06:51:24;;;;;;;18.67;9.80;;;2.50;99.90;;;;;;5093053;28;20201;-74
2022/01/19 06:53:52;;;;;;;18.03;8.77;;;2.50;99.90;;;;;;5093300;28;20279;-74
2022/01/19 06:56:19;;;;;;;18.40;10.00;;;2.50;99.90;;;;;;5093217;28;20245;-74
2022/01/19 06:58:46;;;;;;;17.37;9.73;;;2.60;99.90;;;;;;5093264;28;20639;-74
2022/01/19 07:01:13;;;;;;;16.77;9.33;;;2.60;99.90;;;;;;5093312;28;20209;-74
2022/01/19 07:03:42;;;;;;;16.33;9.93;;;2.60;99.90;;;;;;5092254;28;20209;-74
2022/01/19 07:06:11;;;;;;;16.47;9.50;;;2.80;99.90;;;;;;5093376;28;20205;-74
2022/01/19 07:08:38;;;;;;;18.23;9.33;;;2.70;99.90;;;;;;5092952;28;20798;-74
2022/01/19 07:11:05;;;;;;;17.27;9.70;;;2.60;99.90;;;;;;5093493;28;20197;-74
2022/01/19 07:13:33;;;;;;;17.07;9.97;;;2.60;99.90;;;;;;5091755;28;20225;-74
2022/01/19 07:16:00;;;;;;;18.80;10.37;;;2.80;99.90;;;;;;5093070;28;20209;-74
2022/01/19 07:18:27;;;;;;;16.63;9.77;;;2.70;99.90;;;;;;5093152;28;20255;-74
2022/01/19 07:20:55;;;;;;;15.40;9.53;;;2.80;99.90;;;;;;5092254;28;20198;-74
2022/01/19 07:23:23;;;;;;;17.53;9.97;;;2.90;99.90;;;;;;5091823;28;20247;-74
2022/01/19 07:25:50;;;;;;;15.63;9.87;;;2.90;99.90;;;;;;5092603;28;20301;-74
2022/01/19 07:28:17;;;;;;;17.77;10.07;;;2.90;99.90;;;;;;5091481;28;20251;-74
2022/01/19 07:30:44;;;;;;;16.50;10.33;;;2.90;99.90;;;;;;5091787;28;20205;-74
2022/01/19 07:33:12;;;;;;;17.97;10.33;;;2.90;99.90;;;;;;5091850;28;20259;-74
2022/01/19 07:35:39;;;;;;;14.97;9.37;;;2.90;99.90;;;;;;5092275;28;20683;-74
2022/01/19 07:38:08;;;;;;;14.63;9.80;;;2.90;99.90;;;;;;5092525;28;20247;-74
2022/01/19 07:40:35;;;;;;;15.67;9.90;;;2.90;99.90;;;;;;5092389;28;20656;-74
2022/01/19 07:43:02;;;;;;;14.63;9.80;;;2.90;99.90;;;;;;5092533;28;20244;-67
2022/01/19 07:45:29;;;;;;;15.17;10.10;;;3.00;99.90;;;;;;5092289;28;20205;-67
2022/01/19 07:47:57;;;;;;;17.23;10.63;;;2.90;99.90;;;;;;5092761;28;20239;-67
2022/01/19 07:50:24;;;;;;;15.00;9.17;;;2.90;99.90;;;;;;5091901;28;20210;-68
2022/01/19 07:52:51;;;;;;;17.37;9.70;;;2.70;99.90;;;;;;5092424;28;20226;-67
2022/01/19 07:55:20;;;;;;;13.87;9.30;;;2.70;99.90;;;;;;5091362;28;20267;-67
2022/01/19 07:57:50;;;;;;;16.10;9.87;;;2.90;99.90;;;;;;5092763;28;20221;-67
2022/01/19 08:00:18;;;;;;;16.67;9.63;;;3.00;99.90;;;;;;5091792;28;20197;-67
2022/01/19 08:02:45;;;;;;;16.23;10.73;;;3.00;99.90;;;;;;5092265;28;20250;-68
2022/01/19 08:05:13;;;;;;;15.13;9.43;;;2.80;99.90;;;;;;5091362;28;20263;-67
2022/01/19 08:07:40;;;;;;;16.37;9.80;;;2.70;99.90;;;;;;5091484;28;20201;-67
2022/01/19 08:10:09;;;;;;;14.90;9.47;;;2.70;99.90;;;;;;5091492;28;20205;-69
2022/01/19 08:12:38;;;;;;;16.77;9.27;;;2.80;99.90;;;;;;5092084;28;20223;-74
2022/01/19 08:15:06;;;;;;;15.23;10.10;;;3.20;99.90;;;;;;5090083;28;20236;-75
2022/01/19 08:17:33;;;;;;;15.13;8.93;;;3.30;99.90;;;;;;5091347;28;20266;-74
2022/01/19 08:20:00;;;;;;;16.73;9.30;;;3.30;99.90;;;;;;5091196;28;20205;-74
2022/01/19 08:22:27;;;;;;;14.87;8.97;;;3.40;99.90;;;;;;5089960;28;20201;-74
2022/01/19 08:24:54;;;;;;;13.30;8.53;;;3.40;99.90;;;;;;5089599;28;20259;-74
2022/01/19 08:27:21;;;;;;;12.93;8.00;;;3.40;99.90;;;;;;5089648;28;20263;-74
2022/01/19 08:29:50;;;;;;;15.90;9.27;;;3.40;99.90;;;;;;5089667;28;20600;-74
2022/01/19 08:32:17;;;;;;;12.43;8.43;;;3.50;99.90;;;;;;5091061;28;20233;-74
2022/01/19 08:34:44;;;;;;;14.60;9.00;;;3.50;99.90;;;;;;5089790;28;20221;-74
2022/01/19 08:37:14;;;;;;;14.87;9.27;;;3.50;99.90;;;;;;5090586;28;20240;-75
2022/01/19 08:39:42;;;;;;;17.13;9.67;;;3.50;99.90;;;;;;5089666;28;20254;-74
2022/01/19 08:42:10;;;;;;;16.47;9.90;;;3.60;99.90;;;;;;5091031;28;20229;-74
2022/01/19 08:44:37;;;;;;;16.07;9.63;;;3.60;99.90;;;;;;5089332;28;20640;-74
2022/01/19 08:47:06;;;;;;;13.17;8.47;;;3.70;99.90;;;;;;5090941;28;20201;-74
2022/01/19 08:49:34;;;;;;;14.13;8.67;;;3.70;99.90;;;;;;5090246;28;20247;-73
2022/01/19 08:52:02;;;;;;;14.00;9.13;;;3.70;99.90;;;;;;5090408;28;20219;-74
2022/01/19 08:54:29;;;;;;;16.07;8.93;;;3.70;99.90;;;;;;5090021;28;20229;-73
2022/01/19 08:56:56;;;;;;;14.63;9.07;;;3.70;99.90;;;;;;5090094;28;20200;-73
2022/01/19 08:59:23;;;;;;;15.10;9.50;;;3.70;99.90;;;;;;5090563;28;20225;-73
2022/01/19 09:01:50;;;;;;;12.73;8.47;;;3.70;99.90;;;;;;5090656;28;20201;-73
2022/01/19 09:04:19;;;;;;;11.57;8.13;;;3.70;99.90;;;;;;5090208;28;20281;-73
2022/01/19 09:06:46;;;;;;;12.57;7.77;;;3.70;99.90;;;;;;5090404;28;20201;-73
2022/01/19 09:09:13;;;;;;;11.27;7.43;;;3.70;99.90;;;;;;5089321;28;20631;-73
2022/01/19 09:11:42;;;;;;;11.13;7.20;;;3.70;99.90;;;;;;5090486;28;20194;-72
2022/01/19 09:14:10;;;;;;;12.30;7.73;;;3.80;99.90;;;;;;5090079;28;20253;-73
2022/01/19 09:16:38;;;;;;;12.33;7.23;;;3.80;99.90;;;;;;5090697;28;20301;-72
2022/01/19 09:19:07;;;;;;;11.13;7.10;;;3.80;99.90;;;;;;5090787;28;20684;-72
2022/01/19 09:21:35;;;;;;;12.97;7.90;;;3.90;99.90;;;;;;5089880;28;20198;-72
2022/01/19 09:24:03;;;;;;;11.33;7.97;;;3.90;99.90;;;;;;5089341;28;20206;-72
2022/01/19 09:26:30;;;;;;;11.27;7.23;;;3.90;99.90;;;;;;5073407;28;20249;-72
2022/01/19 09:28:57;;;;;;;12.30;7.90;;;3.90;99.90;;;;;;5089856;28;20247;-72
2022/01/19 09:31:24;;;;;;;12.53;7.60;;;4.00;99.90;;;;;;5089690;28;20255;-72
2022/01/19 09:33:56;;;;;;;10.40;7.10;;;3.90;99.90;;;;;;5088156;28;20206;-72
2022/01/19 09:36:35;;;;;;;10.87;7.07;;;4.00;99.90;;;;;;5092395;28;20205;-73
2022/01/19 09:39:04;;;;;;;9.73;6.60;;;4.00;99.90;;;;;;5094283;28;20205;-72
2022/01/19 09:41:31;;;;;;;11.13;7.20;;;4.00;99.90;;;;;;5094111;28;20248;-72
2022/01/19 09:43:59;;;;;;;9.60;6.70;;;4.00;99.90;;;;;;5093699;28;20243;-72
2022/01/19 09:46:26;;;;;;;11.80;7.13;;;4.00;99.90;;;;;;5094084;28;20220;-72
2022/01/19 09:48:53;;;;;;;9.40;6.77;;;4.10;99.90;;;;;;5093933;28;20202;-72
2022/01/19 09:51:20;;;;;;;11.97;7.20;;;4.10;99.90;;;;;;5094114;28;20202;-73
2022/01/19 09:53:48;;;;;;;11.13;7.40;;;4.10;99.90;;;;;;5093451;28;20728;-72
2022/01/19 09:56:19;;;;;;;11.00;6.70;;;4.10;99.90;;;;;;5093892;28;20221;-72
2022/01/19 09:58:46;;;;;;;11.10;6.70;;;4.20;99.90;;;;;;5093923;28;20210;-73
2022/01/19 10:01:18;;;;;;;10.80;7.20;;;4.20;99.90;;;;;;5093642;28;20258;-72
2022/01/19 10:03:46;;;;;;;8.57;6.50;;;4.20;99.90;;;;;;5093683;28;20549;-72
2022/01/19 10:06:15;;;;;;;8.93;6.40;;;4.30;99.90;;;;;;5093672;28;20567;-73
2022/01/19 10:08:44;;;;;;;9.80;7.20;;;4.30;99.90;;;;;;5093605;28;20255;-74
2022/01/19 10:11:21;;;;;;;11.20;7.63;;;4.30;99.90;;;;;;5093491;28;20643;-73
2022/01/19 10:17:00;;;;;;;8.33;6.27;;;4.40;99.90;;;;;;5068361;28;20201;-73
2022/01/19 10:19:29;;;;;;;8.73;6.33;;;4.40;99.90;;;;;;5093730;28;20532;-73
2022/01/19 10:22:15;;;;;;;8.63;6.33;;;4.50;99.90;;;;;;5093566;28;20255;-73
2022/01/19 10:24:48;;;;;;;8.43;6.03;;;4.50;99.90;;;;;;5093009;28;20201;-73
2022/01/19 10:27:36;;;;;;;7.43;5.87;;;4.60;99.90;;;;;;5093242;28;20255;-73
2022/01/19 10:30:21;;;;;;;9.97;6.73;;;4.60;99.90;;;;;;5093717;28;20236;-73
2022/01/19 10:32:51;;;;;;;8.93;6.87;;;4.60;99.90;;;;;;5092047;28;20563;-73
2022/01/19 10:35:25;;;;;;;10.73;6.77;;;4.70;99.90;;;;;;5092673;28;20213;-73
2022/01/19 10:38:09;;;;;;;10.47;7.23;;;4.70;99.90;;;;;;5092848;28;20671;-74
2022/01/19 10:40:38;;;;;;;10.47;7.10;;;4.70;99.90;;;;;;5092984;28;20209;-73
2022/01/19 10:43:28;;;;;;;9.00;7.00;;;4.70;99.90;;;;;;5093074;28;20275;-73
2022/01/19 10:45:56;;;;;;;9.93;6.57;;;4.70;99.90;;;;;;5092631;28;20664;-73
2022/01/19 10:48:36;;;;;;;9.83;7.27;;;4.70;99.90;;;;;;5092017;28;20533;-74
2022/01/19 10:51:15;;;;;;;9.53;7.07;;;4.70;99.90;;;;;;5092703;28;20664;-74
2022/01/19 10:53:44;;;;;;;10.70;7.77;;;4.80;99.90;;;;;;5092491;28;20240;-73
2022/01/19 10:56:26;;;;;;;10.63;7.73;;;4.80;99.90;;;;;;5092618;28;20267;-74
2022/01/19 10:59:01;;;;;;;9.97;6.70;;;4.80;99.90;;;;;;5092854;28;20264;-74
2022/01/19 11:01:36;;;;;;;9.70;6.83;;;4.80;99.90;;;;;;5092642;28;20246;-74
2022/01/19 11:04:24;;;;;;;8.77;6.53;;;4.80;99.90;;;;;;5092142;28;20205;-73
2022/01/19 11:06:55;;;;;;;7.87;6.30;;;4.80;99.90;;;;;;5092394;28;20194;-73
2022/01/19 11:09:25;;;;;;;8.50;6.63;;;4.80;99.90;;;;;;5092328;28;20229;-74
2022/01/19 11:11:53;;;;;;;9.70;7.30;;;4.70;99.90;;;;;;5092604;28;20672;-74
2022/01/19 11:14:24;;;;;;;10.13;6.47;;;4.70;99.90;;;;;;5092053;28;20209;-74
2022/01/19 11:16:52;;;;;;;7.93;6.10;;;4.70;99.90;;;;;;5094181;28;20691;-73
2022/01/19 11:19:20;;;;;;;7.97;6.23;;;4.70;99.90;;;;;;5099259;28;20203;-74
2022/01/19 11:22:22;;;;;;;8.90;5.97;;;4.80;99.90;;;;;;5071145;28;20635;-74
2022/01/19 11:25:02;;;;;;;8.17;5.63;;;4.80;99.90;;;;;;5028640;28;20207;-73
2022/01/19 11:27:37;;;;;;;6.60;5.50;;;4.80;99.90;;;;;;5084238;28;20213;-74
2022/01/19 11:30:15;;;;;;;9.47;5.70;;;4.80;99.90;;;;;;5091178;28;20197;-74
2022/01/19 11:32:43;;;;;;;8.77;6.20;;;4.90;99.90;;;;;;5090193;28;20238;-74
2022/01/19 11:35:34;;;;;;;8.80;5.90;;;4.80;99.90;;;;;;5090653;28;20225;-73
2022/01/19 11:38:03;;;;;;;10.23;6.53;;;4.80;99.90;;;;;;5090845;28;20292;-73
2022/01/19 11:40:36;;;;;;;8.17;6.13;;;4.80;99.90;;;;;;5071700;28;20256;-68
2022/01/19 11:43:21;;;;;;;9.13;6.60;;;4.80;99.90;;;;;;5084406;28;20205;-69
2022/01/19 11:45:49;;;;;;;8.17;6.03;;;4.80;99.90;;;;;;5090874;28;20202;-69
2022/01/19 11:48:18;;;;;;;7.47;6.40;;;4.70;99.90;;;;;;5091593;28;20552;-69
2022/01/19 11:50:46;;;;;;;9.60;6.87;;;4.70;99.90;;;;;;5091890;28;20258;-69
2022/01/19 11:53:14;;;;;;;9.53;6.87;;;4.70;99.90;;;;;;5091471;28;20481;-69
2022/01/19 11:55:43;;;;;;;9.33;7.07;;;4.70;99.90;;;;;;5091642;28;20278;-69
2022/01/19 11:58:19;;;;;;;11.03;8.07;;;4.70;99.90;;;;;;5091737;28;20206;-69
2022/01/19 12:00:49;;;;;;;11.07;7.97;;;4.70;99.90;;;;;;5090626;28;20212;-69
2022/01/19 12:03:21;;;;;;;10.70;7.80;;;4.70;99.90;;;;;;5091023;28;20606;-69
2022/01/19 12:05:51;;;;;;;9.57;7.33;;;4.60;99.90;;;;;;5090110;28;20210;-69
2022/01/19 12:08:26;;;;;;;9.77;7.10;;;4.60;99.90;;;;;;5090398;28;20571;-69
2022/01/19 12:10:57;;;;;;;9.10;7.70;;;4.60;99.90;;;;;;5091329;28;20248;-69
2022/01/19 12:13:35;;;;;;;9.73;7.90;;;4.70;99.90;;;;;;5090774;28;20668;-69
2022/01/19 12:16:12;;;;;;;11.53;8.10;;;4.60;99.90;;;;;;5089862;28;20691;-69
2022/01/19 12:18:46;;;;;;;10.67;7.90;;;4.60;99.90;;;;;;5089408;28;20204;-69
2022/01/19 12:21:16;;;;;;;11.10;7.90;;;4.60;99.90;;;;;;5089699;28;20764;-69
2022/01/19 12:23:44;;;;;;;11.97;8.73;;;4.60;99.90;;;;;;5089359;28;20279;-69
2022/01/19 12:26:12;;;;;;;11.73;8.10;;;4.60;99.90;;;;;;5091096;28;20245;-69
2022/01/19 12:28:42;;;;;;;11.73;8.43;;;4.60;99.90;;;;;;5089929;28;20628;-69
2022/01/19 12:31:33;;;;;;;12.17;9.23;;;4.60;99.90;;;;;;5090675;28;20672;-69
2022/01/19 12:34:20;;;;;;;14.10;9.63;;;4.60;99.90;;;;;;5089046;28;20226;-69
2022/01/19 12:36:50;;;;;;;14.73;10.00;;;4.60;99.90;;;;;;5089619;28;20264;-69
2022/01/19 12:39:40;;;;;;;15.57;10.30;;;4.70;99.90;;;;;;5090580;28;20567;-69
2022/01/19 12:42:13;;;;;;;14.13;9.40;;;4.70;99.90;;;;;;5090729;28;20201;-69
2022/01/19 12:44:43;;;;;;;14.90;10.13;;;4.70;99.90;;;;;;5090092;28;20213;-69
2022/01/19 12:47:47;;;;;;;15.60;10.30;;;4.60;99.90;;;;;;5090387;28;20209;-69
2022/01/19 12:50:43;;;;;;;16.30;10.60;;;4.70;99.90;;;;;;5089489;28;20197;-69
2022/01/19 12:53:15;;;;;;;15.10;9.87;;;4.60;99.90;;;;;;5090274;28;20669;-69
2022/01/19 12:55:46;;;;;;;14.13;9.23;;;4.60;99.90;;;;;;5089184;28;20267;-69
2022/01/19 12:58:17;;;;;;;16.27;10.03;;;4.70;99.90;;;;;;5090616;28;20275;-69
2022/01/19 13:00:49;;;;;;;14.37;8.90;;;4.60;99.90;;;;;;5090116;28;20205;-69
2022/01/19 13:03:32;;;;;;;13.53;9.33;;;4.70;99.90;;;;;;5090239;28;20213;-69
2022/01/19 13:06:03;;;;;;;11.77;8.40;;;4.70;99.90;;;;;;5090645;28;20197;-69
2022/01/19 13:08:34;;;;;;;13.90;9.73;;;4.70;99.90;;;;;;5090306;28;20209;-69
2022/01/19 13:11:10;;;;;;;13.43;9.10;;;4.70;99.90;;;;;;5092380;28;20296;-69
2022/01/19 13:13:56;;;;;;;14.27;9.30;;;4.70;99.90;;;;;;5097049;28;20292;-69
2022/01/19 13:16:39;;;;;;;17.07;9.97;;;4.70;99.90;;;;;;5095888;28;20229;-69
2022/01/19 13:19:11;;;;;;;16.37;10.80;;;4.80;99.90;;;;;;5098000;28;20257;-69
2022/01/19 13:21:39;;;;;;;15.07;9.97;;;4.70;99.90;;;;;;5096796;28;20255;-69
2022/01/19 13:24:11;;;;;;;17.20;9.90;;;4.70;99.90;;;;;;5094467;28;20516;-69
2022/01/19 13:26:41;;;;;;;15.80;10.10;;;4.70;99.90;;;;;;5097317;28;20197;-69
2022/01/19 13:29:27;;;;;;;16.23;10.27;;;4.70;99.90;;;;;;5093920;28;20201;-69
2022/01/19 13:32:03;;;;;;;16.33;10.53;;;4.80;99.90;;;;;;5094042;28;20202;-69
2022/01/19 13:34:48;;;;;;;17.00;11.40;;;4.70;99.90;;;;;;5096032;28;20198;-69
2022/01/19 13:37:15;;;;;;;17.57;11.07;;;4.80;99.90;;;;;;5101600;28;20232;-69
2022/01/19 13:39:42;;;;;;;20.37;12.17;;;4.80;99.90;;;;;;5097997;28;20205;-69
2022/01/19 13:42:09;;;;;;;16.90;11.30;;;4.80;99.90;;;;;;5096202;28;20574;-69
2022/01/19 13:44:44;;;;;;;20.17;13.63;;;4.70;99.90;;;;;;5095316;28;20197;-69
2022/01/19 13:47:16;;;;;;;19.87;13.10;;;4.80;99.90;;;;;;5101620;28;20651;-69
2022/01/19 13:49:53;;;;;;;19.83;11.80;;;4.70;99.90;;;;;;5099272;28;20206;-69
2022/01/19 13:52:22;;;;;;;22.87;14.07;;;4.80;99.90;;;;;;5095057;28;20212;-69
2022/01/19 13:54:49;;;;;;;18.60;12.33;;;4.80;99.90;;;;;;5099057;28;20250;-69
2022/01/19 13:57:27;;;;;;;21.73;13.67;;;4.80;99.90;;;;;;5100305;28;20224;-69
2022/01/19 13:59:54;;;;;;;24.73;13.67;;;4.70;99.90;;;;;;5098359;28;20225;-69
2022/01/19 14:02:22;;;;;;;20.40;12.70;;;4.80;99.90;;;;;;5095484;28;20232;-69
2022/01/19 14:04:56;;;;;;;20.17;12.57;;;4.80;99.90;;;;;;5096860;28;20217;-69